Time;durP1;ratioP1;P1;durP2;ratioP2;P2;SDS_P1;SDS_P2;PMS_P1;PMS_P2;Temp;Humidity;BMP_temperature;BMP_pressure;BME280_temperature;BME280_humidity;BME280_pressure;Samples;Min_cycle;Max_cycle;Signal;HPM_P1;HPM_P2
2022/06/16 00:01:44;;;;;;;5.17;2.55;;;;;;;16.06;57.03;100822.05;1694295;82;21137;-50
2022/06/16 00:04:13;;;;;;;5.85;2.87;;;;;;;16.03;57.18;100827.64;1686130;83;22139;-50
2022/06/16 00:06:39;;;;;;;6.72;2.55;;;;;;;16.03;57.44;100824.17;1683766;83;21066;-49
2022/06/16 00:09:06;;;;;;;5.72;2.42;;;;;;;16.10;57.24;100823.41;1690252;84;21732;-52
2022/06/16 00:11:33;;;;;;;6.42;2.55;;;;;;;16.16;57.14;100825.48;1692450;83;21070;-49
2022/06/16 00:14:01;;;;;;;5.55;2.60;;;;;;;16.20;57.22;100825.19;1687227;84;21613;-50
2022/06/16 00:16:28;;;;;;;7.22;2.85;;;;;;;16.21;57.36;100826.87;1684389;84;21145;-50
2022/06/16 00:18:55;;;;;;;9.33;2.77;;;;;;;16.21;57.37;100830.36;1688989;83;21482;-49
2022/06/16 00:21:22;;;;;;;5.12;2.85;;;;;;;16.21;57.36;100829.53;1687538;83;21184;-49
2022/06/16 00:23:50;;;;;;;9.18;3.70;;;;;;;16.14;57.64;100826.13;1684663;83;21100;-50
2022/06/16 00:26:21;;;;;;;6.03;3.37;;;;;;;16.11;58.41;100826.92;1688165;83;21046;-49
2022/06/16 00:28:48;;;;;;;8.33;2.70;;;;;;;16.04;58.79;100824.02;1704294;82;21113;-49
2022/06/16 00:31:17;;;;;;;6.97;2.80;;;;;;;15.96;59.10;100822.09;1734197;80;21137;-49
2022/06/16 00:33:44;;;;;;;8.23;2.72;;;;;;;15.90;59.28;100819.19;1730169;81;21030;-49
2022/06/16 00:36:11;;;;;;;5.72;2.77;;;;;;;15.83;59.27;100823.42;1737192;81;21520;-49
2022/06/16 00:38:38;;;;;;;4.65;2.42;;;;;;;15.77;58.96;100824.85;1734554;82;21105;-49
2022/06/16 00:41:05;;;;;;;6.30;2.80;;;;;;;15.68;58.79;100820.37;1736635;80;21117;-54
2022/06/16 00:43:32;;;;;;;4.70;2.55;;;;;;;15.60;58.84;100817.11;1734127;82;21113;-49
2022/06/16 00:46:06;;;;;;;6.15;3.30;;;;;;;15.51;59.01;100820.14;1742794;80;21565;-49
2022/06/16 00:48:55;;;;;;;7.72;2.87;;;;;;;15.45;59.52;100820.73;1733332;80;21117;-50
2022/06/16 00:51:31;;;;;;;7.55;3.00;;;;;;;15.41;60.08;100821.98;1738671;81;21608;-50
2022/06/16 00:54:12;;;;;;;6.53;3.60;;;;;;;15.45;60.41;100822.06;1736354;81;22030;-50
2022/06/16 00:56:41;;;;;;;6.78;3.17;;;;;;;15.50;60.71;100827.77;1733497;81;21106;-49
2022/06/16 00:59:08;;;;;;;5.28;2.85;;;;;;;15.52;60.72;100828.45;1744176;81;21091;-50
2022/06/16 01:01:39;;;;;;;6.12;2.95;;;;;;;15.50;60.54;100826.91;1754091;81;21077;-50
2022/06/16 01:06:54;;;;;;;8.15;2.98;;;;;;;15.43;60.00;100824.00;1751428;81;21139;-49
2022/06/16 01:09:25;;;;;;;7.37;3.27;;;;;;;15.36;60.07;100822.41;1754335;81;22581;-50
2022/06/16 01:15:31;;;;;;;8.63;3.12;;;;;;;15.28;60.44;100825.44;1746223;81;21613;-50
2022/06/16 01:18:35;;;;;;;7.85;3.77;;;;;;;15.22;60.52;100824.20;1736771;81;21061;-49
2022/06/16 01:21:10;;;;;;;7.35;3.30;;;;;;;15.17;60.82;100823.80;1668096;84;22485;-49
2022/06/16 01:24:12;;;;;;;6.55;2.87;;;;;;;15.11;61.03;100832.30;1690726;83;21066;-49
2022/06/16 01:27:12;;;;;;;6.50;2.90;;;;;;;15.06;60.98;100831.39;1734152;81;21003;-49
2022/06/16 01:30:03;;;;;;;6.25;3.12;;;;;;;15.07;61.08;100825.12;1728646;81;21126;-51
2022/06/16 01:32:41;;;;;;;6.20;3.55;;;;;;;15.14;61.24;100828.05;1734853;81;21129;-50
2022/06/16 01:35:34;;;;;;;6.97;3.08;;;;;;;15.19;61.38;100820.51;1736262;81;21152;-49
2022/06/16 01:38:35;;;;;;;7.45;2.67;;;;;;;15.22;61.26;100829.50;1736020;81;21062;-49
2022/06/16 01:41:22;;;;;;;6.25;3.47;;;;;;;15.26;60.97;100824.25;1733446;80;21060;-49
2022/06/16 01:44:10;;;;;;;5.45;2.80;;;;;;;15.24;60.79;100818.27;1745574;81;21074;-50
2022/06/16 01:46:39;;;;;;;6.08;2.87;;;;;;;15.21;60.79;100823.37;1673804;84;21074;-50
2022/06/16 01:49:13;;;;;;;6.42;2.60;;;;;;;15.18;60.84;100824.98;1743266;81;21105;-50
2022/06/16 01:51:54;;;;;;;5.30;3.22;;;;;;;15.16;60.89;100820.78;1741843;81;21038;-50
2022/06/16 01:54:29;;;;;;;5.10;2.75;;;;;;;15.16;61.02;100824.76;1748938;81;21012;-50
2022/06/16 01:57:11;;;;;;;5.28;2.45;;;;;;;15.13;60.62;100821.92;1751356;80;21471;-50
2022/06/16 02:00:00;;;;;;;5.72;2.98;;;;;;;15.13;60.57;100821.06;1707313;82;21039;-50
2022/06/16 02:02:29;;;;;;;5.95;2.65;;;;;;;15.08;60.95;100821.98;1751186;81;21082;-50
2022/06/16 02:05:07;;;;;;;5.25;2.55;;;;;;;15.09;61.04;100826.31;1759137;81;21043;-52
2022/06/16 02:07:51;;;;;;;6.28;2.75;;;;;;;15.15;59.64;100822.61;1759805;81;21074;-50
2022/06/16 02:10:24;;;;;;;9.05;3.33;;;;;;;15.15;59.22;100824.44;1744884;81;22371;-50
2022/06/16 02:12:55;;;;;;;6.90;3.05;;;;;;;15.11;59.23;100825.67;1758378;81;21050;-50
2022/06/16 02:15:54;;;;;;;6.87;2.45;;;;;;;15.03;59.25;100823.25;1693792;82;21119;-50
2022/06/16 02:18:24;;;;;;;7.03;3.00;;;;;;;14.94;59.59;100833.85;1761172;81;21058;-50
2022/06/16 02:20:59;;;;;;;6.50;2.75;;;;;;;14.85;59.79;100832.88;1753950;81;21078;-50
2022/06/16 02:23:26;;;;;;;5.72;2.80;;;;;;;14.82;59.77;100832.66;1750485;81;21470;-50
2022/06/16 02:25:56;;;;;;;6.03;2.47;;;;;;;14.85;59.93;100835.53;1746209;81;21102;-50
2022/06/16 02:28:23;;;;;;;5.75;2.92;;;;;;;14.87;60.08;100838.88;1744754;81;21120;-49
2022/06/16 02:31:16;;;;;;;9.75;2.77;;;;;;;14.92;59.71;100842.44;1684066;83;21078;-50
2022/06/16 02:33:54;;;;;;;5.45;2.60;;;;;;;14.93;59.65;100842.30;1744470;81;21111;-50
2022/06/16 02:36:38;;;;;;;5.95;2.72;;;;;;;14.93;59.63;100842.30;1749215;81;21114;-51
2022/06/16 02:39:20;;;;;;;8.95;2.98;;;;;;;14.95;59.67;100842.16;1749108;81;21078;-51
2022/06/16 02:42:08;;;;;;;6.47;2.67;;;;;;;14.97;59.66;100848.98;1754372;81;21581;-49
2022/06/16 02:44:59;;;;;;;6.47;2.90;;;;;;;14.96;59.63;100848.65;1749681;81;21641;-49
2022/06/16 02:47:56;;;;;;;5.37;2.12;;;;;;;14.99;59.56;100856.79;1745114;81;21561;-49
2022/06/16 02:50:32;;;;;;;4.60;2.08;;;;;;;15.07;59.10;100852.95;1740269;82;21521;-49
2022/06/16 02:53:11;;;;;;;6.60;2.60;;;;;;;15.11;58.74;100853.00;1704447;82;21613;-49
2022/06/16 02:55:43;;;;;;;6.15;2.62;;;;;;;15.15;58.59;100852.27;1671609;84;21154;-49
2022/06/16 02:58:14;;;;;;;5.83;2.55;;;;;;;15.17;58.61;100856.92;1698412;82;21083;-49
2022/06/16 03:00:50;;;;;;;5.08;2.47;;;;;;;15.20;58.67;100851.34;1679702;84;21121;-48
2022/06/16 03:03:31;;;;;;;7.83;2.45;;;;;;;15.24;58.80;100858.86;1674355;84;21493;-49
2022/06/16 03:06:00;;;;;;;4.92;2.22;;;;;;;15.29;58.56;100856.28;1740066;80;21003;-49
2022/06/16 03:08:29;;;;;;;6.12;2.12;;;;;;;15.30;58.81;100853.49;1742886;80;21093;-49
2022/06/16 03:10:58;;;;;;;4.20;2.00;;;;;;;15.35;58.96;100854.40;1746375;80;21070;-49
2022/06/16 03:13:29;;;;;;;4.92;2.40;;;;;;;15.41;58.77;100861.27;1747797;80;21085;-48
2022/06/16 03:15:57;;;;;;;4.20;1.70;;;;;;;15.47;58.36;100859.88;1747136;80;21106;-49
2022/06/16 03:18:26;;;;;;;5.42;2.33;;;;;;;15.50;58.27;100854.29;1747289;81;21505;-49
2022/06/16 03:20:53;;;;;;;8.23;2.72;;;;;;;15.56;58.32;100851.55;1741862;80;21493;-49
2022/06/16 03:23:19;;;;;;;5.55;2.25;;;;;;;15.62;58.30;100856.28;1744321;82;21101;-49
2022/06/16 03:25:49;;;;;;;4.60;2.20;;;;;;;15.68;57.92;100854.86;1742685;81;21085;-50
2022/06/16 03:28:15;;;;;;;4.83;2.50;;;;;;;15.74;58.05;100856.44;1703674;82;21102;-49
2022/06/16 03:30:43;;;;;;;4.67;2.25;;;;;;;15.81;58.14;100859.39;1740002;81;21089;-49
2022/06/16 03:33:12;;;;;;;4.78;2.20;;;;;;;15.90;57.92;100850.56;1737460;82;21089;-49
2022/06/16 03:35:40;;;;;;;7.58;2.87;;;;;;;16.05;57.74;100864.66;1740188;80;21066;-49
2022/06/16 03:40:42;;;;;;;5.25;2.37;;;;;;;16.24;57.08;100862.39;1735828;80;21707;-49
2022/06/16 03:43:09;;;;;;;4.05;1.98;;;;;;;16.30;56.83;100867.13;1745867;80;21598;-49
2022/06/16 03:45:36;;;;;;;7.65;2.47;;;;;;;16.31;56.90;100863.50;1737055;81;21136;-49
2022/06/16 03:48:06;;;;;;;5.28;2.10;;;;;;;16.33;56.96;100862.84;1708381;82;21127;-49
2022/06/16 03:50:34;;;;;;;5.37;1.98;;;;;;;16.37;56.74;100861.55;1766710;79;21065;-49
2022/06/16 03:53:03;;;;;;;6.22;2.55;;;;;;;16.42;56.54;100863.27;1765001;80;21010;-50
2022/06/16 03:55:30;;;;;;;8.60;2.77;;;;;;;16.45;56.60;100855.00;1761240;79;21141;-49
2022/06/16 03:57:58;;;;;;;5.92;2.30;;;;;;;16.51;56.46;100860.23;1767820;80;21350;-50
2022/06/16 04:01:38;;;;;;;5.22;2.42;;;;;;;16.67;56.25;100863.03;1789632;79;22725;-50
2022/06/16 04:04:06;;;;;;;5.15;2.60;;;;;;;16.73;55.81;100866.92;1747674;81;21070;-51
2022/06/16 04:06:45;;;;;;;4.92;2.10;;;;;;;16.76;55.69;100862.64;1749446;80;21094;-51
2022/06/16 04:09:12;;;;;;;5.00;2.65;;;;;;;16.82;55.50;100863.84;1743945;80;21557;-50
2022/06/16 04:11:39;;;;;;;5.28;2.35;;;;;;;16.85;55.29;100861.75;1710869;82;21010;-50
2022/06/16 04:14:10;;;;;;;5.20;2.75;;;;;;;16.92;55.14;100863.81;1714093;81;21078;-50
2022/06/16 04:16:48;;;;;;;4.53;2.17;;;;;;;17.01;55.12;100869.05;1717379;81;20986;-50
2022/06/16 04:19:19;;;;;;;4.75;2.47;;;;;;;17.08;54.88;100866.61;1715099;83;21530;-50
2022/06/16 04:21:47;;;;;;;4.33;2.15;;;;;;;17.14;54.62;100867.81;1717522;81;20905;-50
2022/06/16 04:24:20;;;;;;;5.85;2.20;;;;;;;17.19;54.29;100865.52;1715717;81;21076;-50
2022/06/16 04:26:51;;;;;;;5.72;2.17;;;;;;;17.25;54.38;100863.08;1718632;82;21109;-50
2022/06/16 04:29:18;;;;;;;5.08;2.50;;;;;;;17.32;54.45;100862.47;1713528;82;21024;-50
2022/06/16 04:31:46;;;;;;;6.60;2.67;;;;;;;17.37;54.00;100868.16;1692480;83;22401;-50
2022/06/16 04:34:13;;;;;;;9.65;3.37;;;;;;;17.39;54.00;100860.86;1711523;82;21045;-50
2022/06/16 04:36:41;;;;;;;6.60;2.90;;;;;;;17.43;53.96;100863.05;1695091;83;21889;-51
2022/06/16 04:39:11;;;;;;;5.05;2.12;;;;;;;17.48;54.02;100866.55;1710013;82;21557;-50
2022/06/16 04:41:40;;;;;;;4.97;2.15;;;;;;;17.51;53.77;100867.58;1709856;82;21008;-50
2022/06/16 04:44:08;;;;;;;8.73;2.77;;;;;;;17.58;53.80;100867.28;1708806;82;21751;-50
2022/06/16 04:46:36;;;;;;;5.95;2.08;;;;;;;17.63;53.57;100867.67;1707287;82;21071;-50
2022/06/16 04:49:05;;;;;;;5.58;2.37;;;;;;;17.69;53.70;100867.53;1700433;83;21110;-50
2022/06/16 04:51:34;;;;;;;9.93;2.50;;;;;;;17.79;53.84;100868.75;1706275;82;21083;-50
2022/06/16 04:54:01;;;;;;;6.60;2.05;;;;;;;17.86;52.99;100876.44;1707933;82;21046;-50
2022/06/16 04:56:31;;;;;;;5.33;2.30;;;;;;;17.91;52.68;100870.67;1712084;82;21046;-50
2022/06/16 04:59:02;;;;;;;4.45;2.15;;;;;;;17.96;52.46;100869.70;1704169;82;21094;-49
2022/06/16 05:01:33;;;;;;;5.25;2.17;;;;;;;18.02;52.59;100867.71;1696905;83;21119;-50
2022/06/16 05:04:13;;;;;;;4.85;2.25;;;;;;;18.09;52.76;100863.91;1700229;83;21621;-50
2022/06/16 05:06:58;;;;;;;5.62;2.40;;;;;;;18.16;52.45;100872.95;1698235;83;21509;-48
2022/06/16 05:09:30;;;;;;;4.87;2.12;;;;;;;18.25;52.55;100869.31;1677339;83;21143;-49
2022/06/16 05:12:16;;;;;;;5.00;2.17;;;;;;;18.33;52.28;100867.18;1696965;83;21067;-49
2022/06/16 05:14:45;;;;;;;4.30;2.30;;;;;;;18.44;51.96;100868.70;1698858;83;21534;-49
2022/06/16 05:17:27;;;;;;;4.78;1.90;;;;;;;18.52;51.48;100868.72;1697025;83;21033;-49
2022/06/16 05:19:56;;;;;;;4.42;2.10;;;;;;;18.62;50.70;100869.91;1699552;83;21028;-49
2022/06/16 05:22:26;;;;;;;5.87;1.72;;;;;;;18.71;50.50;100867.58;1692796;83;21053;-48
2022/06/16 05:24:55;;;;;;;4.62;1.75;;;;;;;18.78;50.47;100869.95;1698497;83;21064;-49
2022/06/16 05:27:26;;;;;;;4.50;2.05;;;;;;;18.85;49.58;100866.16;1672863;83;21134;-49
2022/06/16 05:30:11;;;;;;;4.70;1.82;;;;;;;18.94;49.98;100866.48;1693449;83;21051;-49
2022/06/16 05:32:43;;;;;;;3.47;1.82;;;;;;;19.02;50.71;100869.16;1695509;83;21608;-49
2022/06/16 05:35:11;;;;;;;4.92;1.80;;;;;;;19.11;50.86;100871.31;1690501;83;21564;-50
2022/06/16 05:37:46;;;;;;;4.53;1.90;;;;;;;19.18;50.50;100871.48;1675544;83;21058;-49
2022/06/16 05:40:33;;;;;;;5.78;1.75;;;;;;;19.26;48.30;100874.15;1694559;82;21051;-49
2022/06/16 05:43:06;;;;;;;4.12;1.65;;;;;;;19.32;47.86;100874.83;1689174;83;21593;-50
2022/06/16 05:45:34;;;;;;;4.37;1.90;;;;;;;19.38;48.90;100874.64;1675630;83;21078;-49
2022/06/16 05:48:12;;;;;;;4.28;1.82;;;;;;;19.48;49.51;100880.63;1700106;83;21497;-50
2022/06/16 05:50:39;;;;;;;6.53;1.92;;;;;;;19.56;48.99;100878.46;1682225;83;21586;-50
2022/06/16 05:53:06;;;;;;;4.37;1.62;;;;;;;19.63;48.44;100882.11;1690833;83;21078;-51
2022/06/16 05:55:41;;;;;;;3.72;1.60;;;;;;;19.68;48.11;100878.42;1683795;83;21078;-49
2022/06/16 05:58:09;;;;;;;5.12;1.62;;;;;;;19.73;48.03;100881.92;1689135;83;21319;-50
2022/06/16 06:00:46;;;;;;;5.20;1.82;;;;;;;19.75;46.87;100881.27;1697625;83;22134;-49
2022/06/16 06:03:15;;;;;;;4.75;1.80;;;;;;;19.78;46.83;100879.09;1684676;83;21133;-50
2022/06/16 06:05:42;;;;;;;4.62;1.80;;;;;;;19.81;47.32;100871.25;1688550;83;21132;-50
2022/06/16 06:16:35;;;;;;;4.37;1.77;;;;;;;20.00;45.65;100873.51;1709810;83;21083;-50
2022/06/16 06:19:23;;;;;;;5.95;1.90;;;;;;;20.04;45.84;100872.69;1700382;82;21041;-50
2022/06/16 06:24:13;;;;;;;5.22;2.08;;;;;;;20.14;46.19;100869.30;1692480;83;21579;-49
2022/06/16 06:26:40;;;;;;;4.85;2.05;;;;;;;20.21;46.92;100869.44;1699741;83;21126;-50
2022/06/16 06:29:07;;;;;;;4.25;1.90;;;;;;;20.27;46.27;100873.24;1691349;83;21122;-49
2022/06/16 06:31:33;;;;;;;6.47;2.37;;;;;;;20.35;45.56;100875.88;1697949;83;21164;-50
2022/06/16 06:34:00;;;;;;;3.87;1.47;;;;;;;20.39;44.84;100871.83;1688366;83;21110;-50
2022/06/16 06:36:27;;;;;;;5.92;2.02;;;;;;;20.43;45.61;100873.16;1686979;83;21031;-50
2022/06/16 06:38:55;;;;;;;4.45;1.52;;;;;;;20.48;45.37;100879.33;1685500;83;21137;-50
2022/06/16 06:41:22;;;;;;;4.65;2.00;;;;;;;20.52;45.88;100876.62;1688052;82;21067;-50
2022/06/16 06:43:48;;;;;;;4.10;1.70;;;;;;;20.59;46.12;100874.41;1708625;83;21139;-51
2022/06/16 06:46:16;;;;;;;5.58;1.62;;;;;;;20.66;45.60;100877.73;1689052;83;21103;-49
2022/06/16 06:48:44;;;;;;;5.28;1.60;;;;;;;20.70;44.35;100873.19;1688055;83;21027;-49
2022/06/16 06:51:11;;;;;;;3.52;1.50;;;;;;;20.73;44.58;100872.02;1693392;83;21161;-49
2022/06/16 06:53:37;;;;;;;3.83;1.72;;;;;;;20.80;44.36;100874.30;1707810;83;21059;-50
2022/06/16 06:56:05;;;;;;;4.97;1.60;;;;;;;20.85;43.89;100869.25;1690058;83;21696;-49
2022/06/16 06:58:33;;;;;;;5.22;1.62;;;;;;;20.90;42.68;100864.70;1684613;83;21076;-49
2022/06/16 07:01:01;;;;;;;3.42;1.47;;;;;;;20.96;43.06;100874.19;1687045;83;21015;-51
2022/06/16 07:03:31;;;;;;;2.92;1.20;;;;;;;21.05;42.38;100874.13;1681624;83;21753;-49
2022/06/16 07:06:01;;;;;;;3.98;1.52;;;;;;;21.10;41.55;100863.20;1690151;83;21106;-49
2022/06/16 07:08:30;;;;;;;4.92;1.50;;;;;;;21.17;41.73;100865.98;1681287;83;21560;-49
2022/06/16 07:10:58;;;;;;;3.87;1.30;;;;;;;21.25;41.04;100867.73;1683518;83;21173;-49
2022/06/16 07:13:24;;;;;;;4.47;1.50;;;;;;;21.30;41.54;100867.54;1691154;83;21051;-50
2022/06/16 07:15:51;;;;;;;3.92;1.22;;;;;;;21.37;42.54;100864.11;1691998;83;21152;-49
2022/06/16 07:18:18;;;;;;;4.65;1.57;;;;;;;21.44;41.20;100864.55;1681200;83;21060;-50
2022/06/16 07:20:47;;;;;;;5.20;1.40;;;;;;;21.50;41.25;100856.31;1684144;82;21561;-49
2022/06/16 07:23:15;;;;;;;3.47;1.22;;;;;;;21.57;40.73;100854.59;1681303;83;21082;-48
2022/06/16 07:25:42;;;;;;;4.20;1.32;;;;;;;21.66;40.12;100853.47;1679115;83;21313;-49
2022/06/16 07:28:10;;;;;;;4.17;1.32;;;;;;;21.72;39.61;100863.98;1698153;83;21580;-49
2022/06/16 07:30:37;;;;;;;3.50;1.40;;;;;;;21.81;39.20;100856.67;1688802;83;21503;-49
2022/06/16 07:33:04;;;;;;;2.75;1.20;;;;;;;21.88;38.47;100861.09;1694546;83;21691;-49
2022/06/16 07:35:30;;;;;;;2.67;0.93;;;;;;;21.99;37.59;100846.41;1692479;83;21528;-49
2022/06/16 07:37:57;;;;;;;3.37;1.00;;;;;;;22.07;37.88;100849.47;1697425;83;21101;-49
2022/06/16 07:40:24;;;;;;;4.15;1.65;;;;;;;22.19;36.95;100854.70;1679841;83;21144;-49
2022/06/16 07:42:56;;;;;;;3.15;1.02;;;;;;;22.31;37.06;100848.86;1686927;83;21446;-49
2022/06/16 07:45:21;;;;;;;5.53;1.52;;;;;;;22.39;35.98;100847.41;1682198;84;21087;-49
2022/06/16 07:47:49;;;;;;;4.42;1.67;;;;;;;22.42;36.96;100847.85;1684876;83;21580;-49
2022/06/16 07:50:15;;;;;;;3.60;1.37;;;;;;;22.49;36.82;100848.45;1685724;83;21130;-49
2022/06/16 07:52:42;;;;;;;4.75;1.85;;;;;;;22.57;36.25;100849.67;1694911;83;21110;-49
2022/06/16 07:55:09;;;;;;;3.65;1.25;;;;;;;22.59;35.58;100843.59;1679766;83;21563;-50
2022/06/16 07:57:42;;;;;;;2.72;1.12;;;;;;;22.60;36.23;100843.41;1680453;83;21063;-49
2022/06/16 08:00:11;;;;;;;2.58;0.90;;;;;;;22.67;36.11;100838.63;1697635;83;21487;-50
2022/06/16 08:02:41;;;;;;;4.17;1.35;;;;;;;22.74;36.57;100841.68;1700311;83;21444;-49
2022/06/16 08:05:10;;;;;;;3.02;1.12;;;;;;;22.81;36.04;100837.23;1690742;83;21798;-49
2022/06/16 08:07:37;;;;;;;3.25;1.20;;;;;;;22.84;35.48;100840.55;1688088;83;21107;-50
2022/06/16 08:10:06;;;;;;;3.62;1.22;;;;;;;22.81;35.78;100837.23;1694087;82;21036;-50
2022/06/16 08:12:34;;;;;;;3.95;1.10;;;;;;;22.79;36.18;100839.77;1696889;83;21070;-49
2022/06/16 08:15:01;;;;;;;4.83;1.87;;;;;;;22.80;36.55;100838.76;1688810;83;21114;-50
2022/06/16 08:17:30;;;;;;;4.47;1.47;;;;;;;22.81;36.27;100839.91;1687781;83;21146;-49
2022/06/16 08:19:57;;;;;;;3.58;1.20;;;;;;;22.84;36.28;100833.31;1689978;84;21584;-49
2022/06/16 08:22:24;;;;;;;3.27;1.10;;;;;;;22.89;35.88;100831.40;1684731;82;21075;-49
2022/06/16 08:24:51;;;;;;;3.98;1.30;;;;;;;22.94;35.71;100835.67;1680990;83;21039;-50
2022/06/16 08:27:19;;;;;;;4.45;1.70;;;;;;;22.98;35.64;100832.42;1680935;83;21067;-49
2022/06/16 08:29:47;;;;;;;2.27;0.80;;;;;;;23.00;34.75;100830.89;1679328;83;21153;-49
2022/06/16 08:32:16;;;;;;;1.92;0.85;;;;;;;22.96;34.73;100833.13;1673522;83;21102;-49
2022/06/16 08:34:42;;;;;;;2.98;1.02;;;;;;;22.95;34.22;100836.83;1688236;83;21142;-49
2022/06/16 08:37:09;;;;;;;3.55;1.00;;;;;;;22.95;34.39;100834.14;1687101;83;21091;-49
2022/06/16 08:39:35;;;;;;;4.00;1.30;;;;;;;22.97;35.05;100835.30;1679304;83;21114;-49
2022/06/16 08:42:08;;;;;;;2.92;1.05;;;;;;;22.99;34.00;100827.35;1687800;83;21158;-49
2022/06/16 08:44:52;;;;;;;4.45;1.15;;;;;;;23.04;33.76;100829.46;1692564;83;21515;-49
2022/06/16 08:47:22;;;;;;;3.05;0.90;;;;;;;23.10;34.06;100822.50;1686958;83;21134;-49
2022/06/16 08:50:00;;;;;;;4.17;1.30;;;;;;;23.18;34.32;100831.76;1685413;83;21016;-49
2022/06/16 08:52:54;;;;;;;5.28;1.10;;;;;;;23.25;33.49;100823.75;1698954;83;21098;-49
2022/06/16 08:55:35;;;;;;;3.83;1.20;;;;;;;23.32;34.22;100824.13;1685087;83;21257;-49
2022/06/16 08:58:13;;;;;;;5.20;1.15;;;;;;;23.50;34.84;100818.76;1684643;83;21130;-51
2022/06/16 09:00:49;;;;;;;3.08;1.37;;;;;;;23.56;35.18;100814.77;1681306;83;21577;-49
2022/06/16 09:03:28;;;;;;;4.30;1.42;;;;;;;23.54;35.05;100820.86;1728730;81;21039;-51
2022/06/16 09:06:01;;;;;;;2.95;1.30;;;;;;;23.53;34.71;100823.22;1688656;84;21050;-50
2022/06/16 09:08:42;;;;;;;2.45;1.07;;;;;;;23.49;35.13;100818.45;1696465;82;21757;-49
2022/06/16 09:11:36;;;;;;;3.50;1.20;;;;;;;23.47;34.68;100821.34;1697252;84;21082;-49
2022/06/16 09:17:45;;;;;;;3.60;1.20;;;;;;;23.52;34.65;100822.92;1721283;81;21463;-48
2022/06/16 09:20:58;;;;;;;3.80;1.40;;;;;;;23.56;34.27;100822.01;1716622;81;21059;-48
2022/06/16 09:24:04;;;;;;;2.85;1.00;;;;;;;23.59;34.86;100814.90;1720651;81;21138;-50
2022/06/16 09:26:52;;;;;;;3.70;1.10;;;;;;;23.66;33.83;100810.91;1727128;81;21067;-49
2022/06/16 09:29:24;;;;;;;3.83;0.85;;;;;;;23.74;34.40;100810.75;1717866;81;21043;-48
2022/06/16 09:32:17;;;;;;;4.22;1.85;;;;;;;23.93;35.14;100813.23;1713818;81;21056;-50
2022/06/16 09:35:07;;;;;;;3.58;1.20;;;;;;;24.11;33.20;100814.03;1689632;81;21000;-49
2022/06/16 09:38:19;;;;;;;3.27;1.20;;;;;;;24.18;32.98;100818.08;1681921;82;21056;-49
2022/06/16 09:42:32;;;;;;;3.30;0.98;;;;;;;24.32;32.73;100814.38;1693467;84;21065;-49
2022/06/16 09:43:42;;;;;;;2.98;1.07;;;;;;;24.41;32.47;100810.48;1684482;82;21586;-49
2022/06/16 09:46:23;;;;;;;3.27;1.25;;;;;;;24.45;31.26;100818.97;1685556;83;21070;-49
2022/06/16 09:48:58;;;;;;;3.35;1.22;;;;;;;24.52;32.00;100814.42;1704090;82;21066;-49
2022/06/16 09:51:37;;;;;;;;;;;;;;;24.64;31.63;100807.95;1703404;82;21592;-49
2022/06/16 09:54:14;;;;;;;3.17;1.00;;;;;;;24.74;30.86;100815.63;1688979;84;20233;-49
2022/06/16 09:57:09;;;;;;;3.55;1.40;;;;;;;24.76;30.94;100815.71;1676168;84;21080;-50
2022/06/16 09:59:46;;;;;;;3.47;1.37;;;;;;;24.88;31.79;100812.41;1730373;80;21055;-48
2022/06/16 10:02:23;;;;;;;3.85;1.75;;;;;;;24.95;31.51;100810.05;1732871;81;21067;-49
2022/06/16 10:04:54;;;;;;;2.70;1.10;;;;;;;25.00;32.69;100815.63;1690212;82;22306;-49
2022/06/16 10:07:47;;;;;;;3.65;1.40;;;;;;;25.02;33.52;100816.78;1730792;81;21047;-49
2022/06/16 10:10:35;;;;;;;4.75;1.12;;;;;;;25.02;33.36;100812.21;1724457;81;21020;-49
2022/06/16 10:13:12;;;;;;;3.77;1.50;;;;;;;24.95;32.85;100814.08;1722887;81;21047;-51
2022/06/16 10:15:49;;;;;;;2.95;1.22;;;;;;;24.82;33.53;100822.97;1709735;82;21039;-50
2022/06/16 10:18:17;;;;;;;3.77;1.55;;;;;;;24.69;32.90;100816.23;1702697;82;21151;-50
2022/06/16 10:20:45;;;;;;;3.00;1.30;;;;;;;24.53;33.87;100813.41;1694257;82;21102;-50
2022/06/16 10:23:25;;;;;;;2.80;0.90;;;;;;;24.43;34.38;100811.11;1697069;82;21001;-50
2022/06/16 10:25:58;;;;;;;2.90;1.15;;;;;;;24.40;34.45;100808.00;1680133;84;21088;-49
2022/06/16 10:28:30;;;;;;;7.85;1.42;;;;;;;24.37;34.10;100815.12;1684915;84;21159;-50
2022/06/16 10:30:58;;;;;;;3.58;1.30;;;;;;;24.36;34.37;100810.77;1731215;81;22054;-50
2022/06/16 10:33:30;;;;;;;3.75;1.40;;;;;;;24.40;34.37;100805.31;1734505;81;21400;-51
2022/06/16 10:36:08;;;;;;;3.90;1.22;;;;;;;24.39;34.75;100803.11;1697732;84;21569;-50
2022/06/16 10:38:40;;;;;;;3.87;1.30;;;;;;;24.41;34.38;100798.39;1694074;82;21586;-50
2022/06/16 10:41:29;;;;;;;6.25;1.70;;;;;;;24.44;33.86;100793.09;1700431;82;21030;-51
2022/06/16 10:43:58;;;;;;;2.92;1.02;;;;;;;24.41;34.22;100788.12;1687869;82;21801;-51
2022/06/16 10:46:32;;;;;;;3.50;1.15;;;;;;;24.31;33.76;100791.23;1683316;84;21033;-50
2022/06/16 10:49:06;;;;;;;3.20;1.10;;;;;;;24.25;33.64;100788.00;1682427;84;21098;-50
2022/06/16 10:51:36;;;;;;;3.67;1.05;;;;;;;24.21;33.53;100789.42;1664839;84;21008;-50
2022/06/16 10:54:30;;;;;;;2.62;0.90;;;;;;;24.19;32.66;100780.73;1681433;84;21091;-50
2022/06/16 10:57:19;;;;;;;3.55;0.93;;;;;;;24.19;32.25;100777.55;1681768;84;21124;-50
2022/06/16 10:59:49;;;;;;;4.10;1.10;;;;;;;24.21;33.16;100773.29;1696566;82;21054;-50
2022/06/16 11:02:27;;;;;;;2.90;0.90;;;;;;;24.23;33.34;100773.94;1683456;83;21079;-50
2022/06/16 11:05:05;;;;;;;3.70;1.10;;;;;;;24.26;34.12;100769.50;1692759;83;21083;-50
2022/06/16 11:07:38;;;;;;;3.05;1.52;;;;;;;24.27;34.66;100769.80;1687457;83;21071;-50
2022/06/16 11:10:29;;;;;;;3.17;1.42;;;;;;;24.28;34.15;100768.78;1684091;83;21147;-50
2022/06/16 11:12:55;;;;;;;4.22;1.80;;;;;;;24.30;33.71;100774.25;1691429;83;21503;-50
2022/06/16 11:15:35;;;;;;;3.12;1.17;;;;;;;24.36;33.74;100771.77;1688464;83;21090;-50
2022/06/16 11:18:05;;;;;;;3.85;1.40;;;;;;;24.42;33.83;100774.47;1686731;83;21145;-50
2022/06/16 11:20:49;;;;;;;3.05;1.25;;;;;;;24.51;34.06;100772.94;1690680;83;21669;-50
2022/06/16 11:23:33;;;;;;;5.08;1.12;;;;;;;24.60;33.64;100770.41;1697983;83;21152;-50
2022/06/16 11:26:14;;;;;;;3.17;1.20;;;;;;;24.70;34.10;100772.69;1691744;83;21279;-50
2022/06/16 11:28:46;;;;;;;3.65;1.12;;;;;;;24.83;33.95;100768.63;1693996;82;21538;-50
2022/06/16 11:31:21;;;;;;;2.52;1.02;;;;;;;25.01;33.68;100779.58;1691910;83;21063;-48
2022/06/16 11:34:06;;;;;;;4.05;1.22;;;;;;;25.11;33.12;100768.39;1693436;83;21141;-49
2022/06/16 11:36:58;;;;;;;6.80;1.70;;;;;;;25.13;33.19;100772.22;1679124;83;21599;-49
2022/06/16 11:39:43;;;;;;;5.70;2.25;;;;;;;25.10;33.25;100773.98;1683962;83;21055;-50
2022/06/16 11:42:53;;;;;;;4.20;1.35;;;;;;;25.08;33.50;100767.98;1689714;83;21020;-52
2022/06/16 11:45:54;;;;;;;4.17;1.47;;;;;;;25.16;33.80;100765.08;1680912;83;21130;-49
2022/06/16 11:48:26;;;;;;;5.45;1.62;;;;;;;25.24;33.56;100762.70;1690917;83;21086;-49
2022/06/16 11:51:23;;;;;;;4.87;1.35;;;;;;;25.20;31.58;100757.72;1694838;83;21106;-49
2022/06/16 11:54:14;;;;;;;4.75;1.50;;;;;;;25.12;31.83;100762.52;1688611;83;21114;-50
2022/06/16 11:57:26;;;;;;;4.95;1.62;;;;;;;25.09;32.56;100766.44;1699126;83;21107;-49
2022/06/16 12:00:20;;;;;;;4.70;1.65;;;;;;;25.12;32.67;100767.89;1743285;80;21042;-49
2022/06/16 12:03:01;;;;;;;3.52;1.30;;;;;;;25.16;32.89;100767.77;1741818;80;21515;-50
2022/06/16 12:05:40;;;;;;;3.80;1.57;;;;;;;25.22;32.79;100760.21;1702843;82;22410;-49
2022/06/16 12:08:18;;;;;;;5.12;1.45;;;;;;;25.30;32.99;100757.33;1694984;82;21079;-49
2022/06/16 12:10:52;;;;;;;2.35;1.10;;;;;;;25.33;32.91;100756.88;1721943;82;21010;-50
2022/06/16 12:13:57;;;;;;;3.58;1.50;;;;;;;25.45;30.76;100752.19;1708439;82;21140;-50
2022/06/16 12:16:33;;;;;;;4.55;1.37;;;;;;;25.45;30.76;100752.19;1714342;82;21612;-49
2022/06/16 12:19:17;;;;;;;3.52;1.37;;;;;;;25.58;31.07;100749.45;1708828;82;21623;-50
2022/06/16 12:21:59;;;;;;;4.47;1.50;;;;;;;25.58;31.13;100744.88;1700968;82;21050;-50
2022/06/16 12:25:00;;;;;;;5.92;1.37;;;;;;;25.56;30.95;100743.45;1709685;82;21089;-49